createdAt,value
2023-01-04T00:00:23.653Z,8.60
2023-01-04T00:01:23.884Z,7.80
2023-01-04T00:02:23.968Z,7.90
2023-01-04T00:03:24.197Z,7.90
2023-01-04T00:04:24.293Z,7.50
2023-01-04T00:05:24.507Z,8.30
2023-01-04T00:06:24.657Z,7.60
2023-01-04T00:07:24.847Z,7.30
2023-01-04T00:08:25.019Z,8.20
2023-01-04T00:09:25.203Z,7.40
2023-01-04T00:10:25.399Z,8.00
2023-01-04T00:11:25.585Z,7.90
2023-01-04T00:12:25.772Z,8.30
2023-01-04T00:13:25.925Z,8.20
2023-01-04T00:14:26.115Z,8.00
2023-01-04T00:15:26.423Z,7.70
2023-01-04T00:16:26.549Z,8.90
2023-01-04T00:17:26.632Z,8.50
2023-01-04T00:18:26.808Z,8.50
2023-01-04T00:19:26.986Z,7.20
2023-01-04T00:20:27.205Z,7.10
2023-01-04T00:21:27.348Z,8.60
2023-01-04T00:22:27.542Z,8.40
2023-01-04T00:23:27.684Z,7.80
2023-01-04T00:24:27.879Z,7.70
2023-01-04T00:25:28.066Z,7.40
2023-01-04T00:26:28.217Z,8.40
2023-01-04T00:27:28.399Z,8.30
2023-01-04T00:28:28.583Z,8.20
2023-01-04T00:29:28.773Z,7.90
2023-01-04T00:30:28.955Z,7.90
2023-01-04T00:31:29.238Z,7.80
2023-01-04T00:32:29.334Z,7.70
2023-01-04T00:33:29.504Z,7.10
2023-01-04T00:34:29.655Z,8.20
2023-01-04T00:35:45.377Z,7.60
2023-01-04T00:36:31.009Z,7.70
2023-01-04T00:37:30.187Z,7.70
2023-01-04T00:38:30.384Z,8.60
2023-01-04T00:39:30.527Z,8.00
2023-01-04T00:40:30.753Z,7.70
2023-01-04T00:41:57.620Z,8.30
2023-01-04T00:42:32.088Z,7.60
2023-01-04T00:43:31.245Z,8.30
2023-01-04T00:44:31.453Z,8.40
2023-01-04T00:45:31.622Z,8.50
2023-01-04T00:46:31.942Z,7.20
2023-01-04T00:47:32.012Z,7.60
2023-01-04T00:48:33.583Z,7.80
2023-01-04T00:49:32.344Z,7.20
2023-01-04T00:50:32.528Z,8.20
2023-01-04T00:51:32.636Z,8.80
2023-01-04T00:52:32.828Z,7.90
2023-01-04T00:53:33.011Z,7.80
2023-01-04T00:54:33.222Z,8.00
2023-01-04T00:55:33.393Z,8.20
2023-01-04T00:56:33.560Z,7.70
2023-01-04T00:57:33.740Z,7.80
2023-01-04T00:58:33.925Z,6.90
2023-01-04T00:59:34.111Z,6.90
2023-01-04T01:00:34.329Z,7.10
2023-01-04T01:01:34.551Z,7.40
2023-01-04T01:02:34.854Z,7.80
2023-01-04T01:03:38.457Z,8.70
2023-01-04T01:04:35.013Z,7.10
2023-01-04T01:05:35.209Z,9.20
2023-01-04T01:06:35.357Z,8.30
2023-01-04T01:07:35.536Z,7.70
2023-01-04T01:08:35.754Z,8.00
2023-01-04T01:09:35.911Z,7.80
2023-01-04T01:10:36.113Z,8.60
2023-01-04T01:11:36.251Z,8.80
2023-01-04T01:12:36.443Z,8.10
2023-01-04T01:13:36.625Z,8.30
2023-01-04T01:14:36.817Z,8.40
2023-01-04T01:15:37.063Z,7.90
2023-01-04T01:17:38.351Z,8.00
2023-01-04T01:18:37.526Z,8.90
2023-01-04T01:19:37.696Z,8.20
2023-01-04T01:20:37.908Z,8.60
2023-01-04T01:21:38.171Z,7.40
2023-01-04T01:22:38.217Z,8.30
2023-01-04T01:23:38.420Z,8.30
2023-01-04T01:24:38.567Z,7.30
2023-01-04T01:25:38.706Z,8.10
2023-01-04T01:26:38.898Z,8.60
2023-01-04T01:27:39.073Z,6.90
2023-01-04T01:28:39.287Z,8.10
2023-01-04T01:29:39.424Z,7.80
2023-01-04T01:30:39.614Z,7.50
2023-01-04T01:31:39.867Z,7.40
2023-01-04T01:32:39.990Z,8.10
2023-01-04T01:33:40.142Z,8.10
2023-01-04T01:34:40.324Z,7.60
2023-01-04T01:35:40.500Z,8.40
2023-01-04T01:36:40.700Z,8.60
2023-01-04T01:37:40.848Z,8.60
2023-01-04T01:38:41.038Z,7.00
2023-01-04T01:39:41.216Z,7.90
2023-01-04T01:40:41.401Z,7.80
2023-01-04T01:41:41.581Z,8.60
2023-01-04T01:42:41.782Z,8.30
2023-01-04T01:43:41.988Z,8.60
2023-01-04T01:44:42.118Z,7.70
2023-01-04T01:45:42.307Z,7.00
2023-01-04T01:46:42.643Z,7.60
2023-01-04T01:47:42.648Z,8.00
2023-01-04T01:48:42.832Z,7.80
2023-01-04T01:49:43.052Z,7.30
2023-01-04T01:50:43.199Z,7.00
2023-01-04T01:51:43.387Z,7.40
2023-01-04T01:52:43.564Z,7.70
2023-01-04T01:53:43.741Z,8.60
2023-01-04T01:54:43.943Z,7.00
2023-01-04T01:55:44.098Z,7.80
2023-01-04T01:56:44.263Z,7.80
2023-01-04T01:57:44.455Z,8.00
2023-01-04T01:58:44.674Z,8.30
2023-01-04T01:59:44.812Z,7.50
2023-01-04T02:00:45.000Z,7.80
2023-01-04T02:01:45.281Z,8.40
2023-01-04T02:02:45.557Z,7.80
2023-01-04T02:03:45.637Z,7.70
2023-01-04T02:04:45.729Z,8.10
2023-01-04T02:05:45.895Z,8.30
2023-01-04T02:06:46.126Z,7.40
2023-01-04T02:07:46.256Z,6.60
2023-01-04T02:08:46.471Z,7.60
2023-01-04T02:09:46.610Z,7.80
2023-01-04T02:10:46.815Z,9.80
2023-01-04T02:11:46.985Z,8.20
2023-01-04T02:12:47.196Z,7.50
2023-01-04T02:13:47.351Z,7.30
2023-01-04T02:14:47.546Z,8.10
2023-01-04T02:15:47.718Z,7.60
2023-01-04T02:16:47.925Z,8.00
2023-01-04T02:17:48.065Z,7.10
2023-01-04T02:18:48.261Z,8.20
2023-01-04T02:19:48.432Z,7.70
2023-01-04T02:20:48.599Z,7.90
2023-01-04T02:21:48.802Z,8.60
2023-01-04T02:22:48.948Z,7.80
2023-01-04T02:23:49.143Z,9.10
2023-01-04T02:24:49.318Z,7.40
2023-01-04T02:25:49.525Z,7.40
2023-01-04T02:26:49.691Z,7.60
2023-01-04T02:27:49.874Z,7.90
2023-01-04T02:28:50.051Z,7.90
2023-01-04T02:29:50.235Z,9.50
2023-01-04T02:30:50.448Z,8.30
2023-01-04T02:31:50.602Z,8.10
2023-01-04T02:32:50.801Z,8.40
2023-01-04T02:33:50.935Z,8.60
2023-01-04T02:34:56.499Z,7.70
2023-01-04T02:35:52.281Z,8.00
2023-01-04T02:36:51.446Z,8.20
2023-01-04T02:37:51.641Z,7.70
2023-01-04T02:38:51.813Z,8.10
2023-01-04T02:39:51.991Z,7.90
2023-01-04T02:40:52.181Z,8.30
2023-01-04T02:41:52.355Z,7.60
2023-01-04T02:42:52.528Z,7.80
2023-01-04T02:43:52.725Z,7.10
2023-01-04T02:44:52.928Z,9.00
2023-01-04T02:45:53.052Z,8.30
2023-01-04T02:46:53.274Z,8.80
2023-01-04T02:47:53.403Z,7.60
2023-01-04T02:48:53.603Z,7.90
2023-01-04T02:49:55.669Z,8.70
2023-01-04T02:50:54.947Z,7.70
2023-01-04T02:51:54.125Z,7.60
2023-01-04T02:52:54.276Z,7.70
2023-01-04T02:53:54.459Z,8.30
2023-01-04T02:54:54.663Z,7.90
2023-01-04T02:55:54.797Z,8.00
2023-01-04T02:56:59.548Z,8.20
2023-01-04T02:57:56.156Z,8.00
2023-01-04T02:58:55.332Z,9.30
2023-01-04T02:59:55.497Z,8.70
2023-01-04T03:00:55.680Z,8.30
2023-01-04T03:01:55.972Z,7.20
2023-01-04T03:02:56.163Z,7.80
2023-01-04T03:03:56.222Z,7.20
2023-01-04T03:04:56.356Z,7.70
2023-01-04T03:05:56.558Z,8.30
2023-01-04T03:06:56.699Z,6.90
2023-01-04T03:07:56.871Z,7.30
2023-01-04T03:08:57.062Z,8.00
2023-01-04T03:09:57.230Z,7.30
2023-01-04T03:10:57.444Z,7.70
2023-01-04T03:11:57.589Z,8.50
2023-01-04T03:12:57.768Z,7.60
2023-01-04T03:13:57.964Z,8.60
2023-01-04T03:14:58.145Z,8.20
2023-01-04T03:15:58.384Z,7.90
2023-01-04T03:16:58.517Z,7.70
2023-01-04T03:17:58.654Z,8.20
2023-01-04T03:18:58.836Z,8.10
2023-01-04T03:19:59.012Z,7.80
2023-01-04T03:20:59.215Z,7.50
2023-01-04T03:21:59.352Z,8.00
2023-01-04T03:22:59.521Z,8.30
2023-01-04T03:23:59.695Z,8.80
2023-01-04T03:24:59.863Z,8.20
2023-01-04T03:26:00.094Z,8.30
2023-01-04T03:27:00.222Z,8.50
2023-01-04T03:28:00.402Z,7.80
2023-01-04T03:29:00.618Z,8.20
2023-01-04T03:30:00.791Z,8.00
2023-01-04T03:31:00.967Z,7.70
2023-01-04T03:32:01.101Z,7.60
2023-01-04T03:33:01.295Z,8.90
2023-01-04T03:34:01.483Z,7.70
2023-01-04T03:35:01.638Z,8.20
2023-01-04T03:36:01.797Z,7.90
2023-01-04T03:37:01.997Z,7.80
2023-01-04T03:38:02.172Z,8.90
2023-01-04T03:39:02.345Z,8.20
2023-01-04T03:40:02.517Z,7.80
2023-01-04T03:41:02.708Z,8.20
2023-01-04T03:42:02.897Z,7.60
2023-01-04T03:43:03.068Z,8.40
2023-01-04T03:44:03.235Z,7.90
2023-01-04T03:45:09.701Z,8.60
2023-01-04T03:46:04.595Z,8.00
2023-01-04T03:47:03.781Z,8.60
2023-01-04T03:48:04.002Z,8.20
2023-01-04T03:49:04.125Z,8.70
2023-01-04T03:50:04.300Z,8.20
2023-01-04T03:51:04.488Z,7.70
2023-01-04T03:52:04.671Z,7.40
2023-01-04T03:53:04.872Z,8.00
2023-01-04T03:54:05.009Z,7.20
2023-01-04T03:55:05.191Z,8.80
2023-01-04T03:56:05.404Z,7.50
2023-01-04T03:57:05.549Z,8.00
2023-01-04T03:58:05.725Z,7.70
2023-01-04T03:59:05.908Z,8.80
2023-01-04T04:00:06.106Z,7.30
2023-01-04T04:01:06.432Z,9.40
2023-01-04T04:02:06.466Z,7.40
2023-01-04T04:03:06.641Z,8.00
2023-01-04T04:04:06.932Z,8.40
2023-01-04T04:05:06.979Z,8.10
2023-01-04T04:06:07.193Z,7.10
2023-01-04T04:07:07.340Z,7.90
2023-01-04T04:08:07.501Z,8.40
2023-01-04T04:09:07.685Z,8.30
2023-01-04T04:10:07.872Z,8.60
2023-01-04T04:11:08.064Z,7.50
2023-01-04T04:12:08.195Z,7.50
2023-01-04T04:13:08.389Z,8.30
2023-01-04T04:14:08.559Z,8.20
2023-01-04T04:15:08.734Z,7.90
2023-01-04T04:16:09.021Z,7.80
2023-01-04T04:17:09.098Z,7.70
2023-01-04T04:18:09.263Z,7.60
2023-01-04T04:19:09.460Z,9.40
2023-01-04T04:20:09.623Z,10.00
2023-01-04T04:21:09.795Z,7.90
2023-01-04T04:22:09.964Z,8.10
2023-01-04T04:23:10.147Z,7.80
2023-01-04T04:24:10.329Z,7.90
2023-01-04T04:25:10.529Z,7.60
2023-01-04T04:26:10.694Z,8.50
2023-01-04T04:27:10.873Z,8.00
2023-01-04T04:28:11.045Z,7.50
2023-01-04T04:29:11.217Z,8.60
2023-01-04T04:30:11.419Z,9.00
2023-01-04T04:31:11.713Z,8.70
2023-01-04T04:32:11.836Z,8.50
2023-01-04T04:33:11.928Z,8.50
2023-01-04T04:34:12.118Z,7.70
2023-01-04T04:35:12.300Z,8.40
2023-01-04T04:36:12.496Z,9.30
2023-01-04T04:37:12.646Z,9.40
2023-01-04T04:38:12.807Z,8.10
2023-01-04T04:39:12.988Z,7.80
2023-01-04T04:40:13.189Z,8.60
2023-01-04T04:41:13.322Z,9.10
2023-01-04T04:42:13.520Z,8.00
2023-01-04T04:43:13.709Z,7.30
2023-01-04T04:44:13.860Z,7.90
2023-01-04T04:45:14.048Z,8.20
2023-01-04T04:46:14.289Z,7.30
2023-01-04T04:47:14.402Z,7.40
2023-01-04T04:48:14.550Z,8.10
2023-01-04T04:49:14.732Z,8.50
2023-01-04T04:50:14.919Z,8.60
2023-01-04T04:51:15.063Z,8.30
2023-01-04T04:52:15.243Z,8.30
2023-01-04T04:53:15.417Z,7.30
2023-01-04T04:54:15.609Z,7.80
2023-01-04T04:55:15.795Z,8.20
2023-01-04T04:56:15.963Z,8.40
2023-01-04T04:57:16.145Z,7.90
2023-01-04T04:58:16.321Z,8.10
2023-01-04T04:59:16.532Z,8.70
2023-01-04T05:00:16.711Z,7.40
2023-01-04T05:01:16.962Z,9.00
2023-01-04T05:02:17.309Z,8.50
2023-01-04T05:03:17.223Z,7.90
2023-01-04T05:04:17.353Z,8.70
2023-01-04T05:05:17.559Z,8.80
2023-01-04T05:06:17.694Z,7.90
2023-01-04T05:07:17.874Z,8.20
2023-01-04T05:08:18.066Z,8.20
2023-01-04T05:09:18.215Z,8.20
2023-01-04T05:10:18.400Z,8.00
2023-01-04T05:11:18.575Z,8.30
2023-01-04T05:12:18.758Z,8.20
2023-01-04T05:13:18.937Z,8.90
2023-01-04T05:14:19.124Z,8.20
2023-01-04T05:15:19.289Z,8.40
2023-01-04T05:16:19.536Z,7.70
2023-01-04T05:17:19.706Z,8.10
2023-01-04T05:18:19.823Z,8.10
2023-01-04T05:19:19.985Z,7.50
2023-01-04T05:20:20.170Z,8.30
2023-01-04T05:21:20.626Z,8.50
2023-01-04T05:22:20.558Z,8.30
2023-01-04T05:23:20.665Z,8.40
2023-01-04T05:24:20.851Z,7.10
2023-01-04T05:25:21.033Z,9.10
2023-01-04T05:26:21.207Z,8.70
2023-01-04T05:27:21.398Z,8.50
2023-01-04T05:28:21.570Z,8.40
2023-01-04T05:29:21.738Z,8.50
2023-01-04T05:30:21.928Z,7.80
2023-01-04T05:31:22.208Z,8.90
2023-01-04T05:32:22.327Z,9.80
2023-01-04T05:33:22.477Z,8.10
2023-01-04T05:34:22.686Z,8.20
2023-01-04T05:35:22.807Z,7.20
2023-01-04T05:36:23.008Z,7.70
2023-01-04T05:37:23.196Z,8.20
2023-01-04T05:38:23.343Z,8.30
2023-01-04T05:39:23.515Z,7.20
2023-01-04T05:40:23.707Z,7.50
2023-01-04T05:41:23.889Z,7.70
2023-01-04T05:42:24.102Z,9.00
2023-01-04T05:43:24.245Z,6.50
2023-01-04T05:44:24.425Z,8.30
2023-01-04T05:45:24.626Z,6.50
2023-01-04T05:46:24.901Z,7.00
2023-01-04T05:47:24.923Z,7.80
2023-01-04T05:48:25.154Z,8.50
2023-01-04T05:49:25.292Z,9.00
2023-01-04T05:50:25.469Z,8.10
2023-01-04T05:51:25.661Z,6.40
2023-01-04T05:52:25.805Z,7.40
2023-01-04T05:53:25.973Z,8.50
2023-01-04T05:54:26.171Z,7.40
2023-01-04T05:55:26.346Z,7.00
2023-01-04T05:56:26.552Z,7.60
2023-01-04T05:57:26.714Z,8.20
2023-01-04T05:58:26.902Z,8.00
2023-01-04T05:59:27.071Z,7.90
2023-01-04T06:00:27.266Z,7.90
2023-01-04T06:01:27.473Z,8.50
2023-01-04T06:02:27.703Z,8.10
2023-01-04T06:03:27.903Z,7.50
2023-01-04T06:04:27.973Z,7.80
2023-01-04T06:05:28.157Z,7.80
2023-01-04T06:06:28.368Z,7.20
2023-01-04T06:07:28.495Z,8.40
2023-01-04T06:08:28.715Z,7.80
2023-01-04T06:09:28.871Z,6.70
2023-01-04T06:10:29.060Z,8.00
2023-01-04T06:11:29.246Z,6.90
2023-01-04T06:12:29.456Z,6.60
2023-01-04T06:13:29.607Z,7.60
2023-01-04T06:14:29.794Z,7.80
2023-01-04T06:15:29.971Z,7.10
2023-01-04T06:16:30.226Z,7.40
2023-01-04T06:17:30.342Z,8.10
2023-01-04T06:18:30.516Z,6.90
2023-01-04T06:19:30.699Z,6.90
2023-01-04T06:20:30.888Z,6.40
2023-01-04T06:21:31.118Z,6.10
2023-01-04T06:22:31.257Z,8.90
2023-01-04T06:23:31.444Z,7.90
2023-01-04T06:24:31.633Z,6.90
2023-01-04T06:25:31.810Z,6.90
2023-01-04T06:26:32.066Z,6.80
2023-01-04T06:27:32.164Z,7.10
2023-01-04T06:28:37.138Z,6.70
2023-01-04T06:29:33.520Z,7.20
2023-01-04T06:30:32.751Z,6.30
2023-01-04T06:31:32.996Z,6.60
2023-01-04T06:32:33.068Z,6.30
2023-01-04T06:33:33.234Z,5.50
2023-01-04T06:34:33.493Z,6.80
2023-01-04T06:35:33.586Z,5.80
2023-01-04T06:36:33.813Z,6.00
2023-01-04T06:37:33.960Z,5.60
2023-01-04T06:38:34.115Z,6.30
2023-01-04T06:39:34.308Z,6.40
2023-01-04T06:40:34.484Z,6.70
2023-01-04T06:41:34.670Z,5.80
2023-01-04T06:42:34.889Z,5.90
2023-01-04T06:43:35.006Z,5.70
2023-01-04T06:44:35.196Z,6.70
2023-01-04T06:45:35.369Z,5.60
2023-01-04T06:46:35.616Z,5.40
2023-01-04T06:47:35.736Z,5.30
2023-01-04T06:48:35.884Z,6.20
2023-01-04T06:49:36.065Z,7.20
2023-01-04T06:50:36.239Z,5.10
2023-01-04T06:51:36.447Z,6.80
2023-01-04T06:52:36.626Z,5.60
2023-01-04T06:53:36.779Z,6.10
2023-01-04T06:54:36.954Z,6.40
2023-01-04T06:55:37.151Z,6.00
2023-01-04T06:56:37.331Z,5.20
2023-01-04T06:57:37.522Z,6.20
2023-01-04T06:58:37.678Z,5.50
2023-01-04T06:59:37.849Z,5.40
2023-01-04T07:00:38.048Z,5.60
2023-01-04T07:01:38.314Z,5.10
2023-01-04T07:02:38.505Z,5.30
2023-01-04T07:03:38.593Z,5.30
2023-01-04T07:04:38.839Z,5.20
2023-01-04T07:05:38.922Z,5.80
2023-01-04T07:06:39.103Z,5.90
2023-01-04T07:07:39.300Z,4.60
2023-01-04T07:08:39.465Z,6.80
2023-01-04T07:09:39.610Z,5.00
2023-01-04T07:10:39.803Z,5.50
2023-01-04T07:11:39.973Z,4.60
2023-01-04T07:12:40.189Z,4.60
2023-01-04T07:13:40.341Z,4.50
2023-01-04T07:14:40.524Z,5.10
2023-01-04T07:15:41.342Z,5.60
2023-01-04T07:16:40.934Z,4.10
2023-01-04T07:17:41.100Z,3.90
2023-01-04T07:18:41.234Z,5.50
2023-01-04T07:19:41.428Z,4.50
2023-01-04T07:20:41.582Z,5.90
2023-01-04T07:21:41.753Z,4.70
2023-01-04T07:22:41.967Z,5.30
2023-01-04T07:23:42.108Z,5.00
2023-01-04T07:24:42.321Z,4.50
2023-01-04T07:25:42.468Z,6.40
2023-01-04T07:26:42.680Z,5.80
2023-01-04T07:27:42.824Z,6.10
2023-01-04T07:28:43.032Z,6.90
2023-01-04T07:29:43.192Z,6.60
2023-01-04T07:30:43.425Z,6.00
2023-01-04T07:31:43.593Z,6.00
2023-01-04T07:32:43.749Z,5.80
2023-01-04T07:33:43.923Z,5.40
2023-01-04T07:34:44.119Z,4.80
2023-01-04T07:35:44.284Z,4.70
2023-01-04T07:36:44.508Z,5.10
2023-01-04T07:37:44.661Z,5.70
2023-01-04T07:38:44.815Z,5.40
2023-01-04T07:39:44.989Z,5.60
2023-01-04T07:40:56.804Z,5.30
2023-01-04T07:41:46.351Z,5.20
2023-01-04T07:42:45.549Z,4.40
2023-01-04T07:43:45.707Z,4.80
2023-01-04T07:44:45.899Z,5.10
2023-01-04T07:45:46.143Z,4.50
2023-01-04T07:46:46.298Z,4.90
2023-01-04T07:47:46.444Z,4.60
2023-01-04T07:48:46.616Z,8.30
2023-01-04T07:49:46.767Z,7.40
2023-01-04T07:50:46.964Z,5.70
2023-01-04T07:51:47.132Z,4.70
2023-01-04T07:52:47.303Z,5.30
2023-01-04T07:53:47.463Z,5.70
2023-01-04T07:54:47.630Z,7.20
2023-01-04T07:55:47.805Z,7.20
2023-01-04T07:56:47.992Z,4.00
2023-01-04T07:57:48.149Z,5.80
2023-01-04T07:58:48.325Z,6.00
2023-01-04T07:59:48.494Z,6.20
2023-01-04T08:00:48.685Z,5.70
2023-01-04T08:01:49.059Z,5.50
2023-01-04T08:02:49.152Z,5.50
2023-01-04T08:03:49.198Z,4.80
2023-01-04T08:04:49.380Z,4.30
2023-01-04T08:05:49.544Z,5.40
2023-01-04T08:06:49.719Z,5.20
2023-01-04T08:07:49.926Z,5.70
2023-01-04T08:08:50.071Z,5.40
2023-01-04T08:09:50.240Z,5.60
2023-01-04T08:10:50.414Z,6.00
2023-01-04T08:11:50.597Z,5.70
2023-01-04T08:12:50.757Z,6.20
2023-01-04T08:13:50.931Z,5.80
2023-01-04T08:14:51.107Z,7.10
2023-01-04T08:15:51.340Z,6.70
2023-01-04T08:16:51.483Z,5.40
2023-01-04T08:17:51.639Z,5.70
2023-01-04T08:18:51.832Z,5.80
2023-01-04T08:19:51.961Z,6.10
2023-01-04T08:20:58.197Z,6.50
2023-01-04T08:21:53.280Z,5.30
2023-01-04T08:22:52.480Z,5.90
2023-01-04T08:23:52.669Z,4.60
2023-01-04T08:24:52.841Z,4.60
2023-01-04T08:25:53.012Z,4.80
2023-01-04T08:26:53.179Z,5.50
2023-01-04T08:27:53.344Z,4.80
2023-01-04T08:28:53.540Z,4.20
2023-01-04T08:29:53.686Z,4.20
2023-01-04T08:30:53.928Z,4.30
2023-01-04T08:31:54.122Z,6.50
2023-01-04T08:32:54.205Z,5.50
2023-01-04T08:33:54.387Z,5.30
2023-01-04T08:34:54.569Z,5.00
2023-01-04T08:35:54.732Z,5.10
2023-01-04T08:36:54.914Z,6.00
2023-01-04T08:37:55.087Z,4.70
2023-01-04T08:39:00.024Z,4.90
2023-01-04T08:39:56.453Z,5.90
2023-01-04T08:41:01.675Z,4.80
2023-01-04T08:42:00.802Z,6.50
2023-01-04T08:42:56.960Z,5.70
2023-01-04T08:43:56.154Z,5.20
2023-01-04T08:44:59.578Z,7.80
2023-01-04T08:45:56.572Z,6.80
2023-01-04T08:46:56.790Z,4.60
2023-01-04T08:47:56.854Z,5.40
2023-01-04T08:48:57.024Z,5.90
2023-01-04T08:49:57.224Z,6.20
2023-01-04T08:50:57.361Z,6.60
2023-01-04T08:51:57.547Z,5.00
2023-01-04T08:52:57.719Z,4.80
2023-01-04T08:53:57.875Z,5.20
2023-01-04T08:54:58.052Z,6.30
2023-01-04T08:55:58.221Z,5.50
2023-01-04T08:56:58.413Z,7.50
2023-01-04T08:57:58.564Z,7.10
2023-01-04T08:58:58.744Z,6.00
2023-01-04T08:59:58.939Z,6.10
2023-01-04T09:00:59.082Z,6.50
2023-01-04T09:02:05.342Z,5.70
2023-01-04T09:03:00.561Z,6.10
2023-01-04T09:03:59.630Z,5.80
2023-01-04T09:04:59.883Z,5.80
2023-01-04T09:05:59.975Z,5.00
2023-01-04T09:07:00.141Z,5.90
2023-01-04T09:08:00.346Z,6.10
2023-01-04T09:09:00.475Z,4.50
2023-01-04T09:10:00.774Z,4.10
2023-01-04T09:11:00.822Z,4.70
2023-01-04T09:12:01.010Z,6.00
2023-01-04T09:13:01.250Z,6.90
2023-01-04T09:14:09.448Z,3.80
2023-01-04T09:15:02.534Z,6.60
2023-01-04T09:16:01.759Z,4.50
2023-01-04T09:17:01.879Z,4.70
2023-01-04T09:19:03.242Z,6.10
2023-01-04T09:20:02.474Z,5.90
2023-01-04T09:21:02.576Z,5.60
2023-01-04T09:22:02.830Z,6.90
2023-01-04T09:23:02.970Z,5.40
2023-01-04T09:24:03.128Z,5.70
2023-01-04T09:25:03.292Z,5.00
2023-01-04T09:26:09.096Z,6.40
2023-01-04T09:27:04.694Z,4.70
2023-01-04T09:28:03.830Z,5.50
2023-01-04T09:29:03.984Z,4.10
2023-01-04T09:30:04.148Z,3.70
2023-01-04T09:31:04.347Z,5.20
2023-01-04T09:32:04.618Z,4.30
2023-01-04T09:33:04.649Z,5.00
2023-01-04T09:34:14.554Z,4.20
2023-01-04T09:35:06.059Z,4.70
2023-01-04T09:36:05.231Z,5.80
2023-01-04T09:37:05.372Z,5.20
2023-01-04T09:38:05.528Z,4.90
2023-01-04T09:39:05.697Z,5.10
2023-01-04T09:40:05.889Z,3.20
2023-01-04T09:41:06.081Z,3.80
2023-01-04T09:42:06.256Z,4.70
2023-01-04T09:43:19.998Z,5.00
2023-01-04T09:44:07.644Z,4.00
2023-01-04T09:45:24.324Z,3.70
2023-01-04T09:46:07.945Z,5.80
2023-01-04T09:47:07.134Z,6.00
2023-01-04T09:48:07.250Z,6.10
2023-01-04T09:49:07.410Z,7.20
2023-01-04T09:50:07.596Z,6.60
2023-01-04T09:51:07.726Z,7.60
2023-01-04T09:52:07.905Z,7.10
2023-01-04T09:53:08.089Z,5.90
2023-01-04T09:54:08.278Z,5.30
2023-01-04T09:55:37.092Z,7.40
2023-01-04T09:56:09.592Z,6.70
2023-01-04T09:57:08.730Z,6.70
2023-01-04T09:58:08.891Z,6.70
2023-01-04T09:59:09.054Z,4.70
2023-01-04T10:00:09.231Z,6.30
2023-01-04T10:01:09.543Z,6.20
2023-01-04T10:02:09.811Z,7.10
2023-01-04T10:03:09.916Z,6.30
2023-01-04T10:04:09.936Z,8.00
2023-01-04T10:05:10.144Z,9.30
2023-01-04T10:06:10.252Z,34.30
2023-01-04T10:07:10.422Z,8.00
2023-01-04T10:08:10.622Z,7.90
2023-01-04T10:09:10.806Z,7.70
2023-01-04T10:10:11.000Z,8.00
2023-01-04T10:11:11.129Z,6.70
2023-01-04T10:12:11.303Z,7.50
2023-01-04T10:13:11.483Z,6.60
2023-01-04T10:14:11.648Z,4.90
2023-01-04T10:15:11.843Z,8.00
2023-01-04T10:16:12.028Z,5.90
2023-01-04T10:17:14.055Z,7.50
2023-01-04T10:19:50.959Z,5.60
2023-01-04T10:21:16.204Z,5.90
2023-01-04T10:21:31.461Z,7.10
2023-01-04T10:22:14.143Z,5.10
2023-01-04T10:23:13.256Z,4.10
2023-01-04T10:24:13.431Z,5.70
2023-01-04T10:25:13.591Z,6.20
2023-01-04T10:26:13.807Z,5.00
2023-01-04T10:27:13.920Z,6.00
2023-01-04T10:28:14.108Z,5.30
2023-01-04T10:29:14.318Z,6.40
2023-01-04T10:30:14.476Z,6.10
2023-01-04T10:31:38.827Z,6.10
2023-01-04T10:32:15.854Z,4.40
2023-01-04T10:33:14.994Z,5.30
2023-01-04T10:34:18.818Z,5.50
2023-01-04T10:35:15.316Z,6.40
2023-01-04T10:36:15.461Z,6.20
2023-01-04T10:37:15.625Z,4.40
2023-01-04T10:38:15.841Z,5.80
2023-01-04T10:39:16.025Z,5.40
2023-01-04T10:40:16.168Z,4.50
2023-01-04T10:41:16.305Z,3.60
2023-01-04T10:42:16.492Z,5.60
2023-01-04T10:43:16.693Z,4.90
2023-01-04T10:44:16.883Z,6.00
2023-01-04T10:45:17.032Z,5.20
2023-01-04T10:46:17.230Z,5.00
2023-01-04T10:47:17.489Z,4.30
2023-01-04T10:48:17.595Z,6.60
2023-01-04T10:49:17.774Z,4.60
2023-01-04T10:50:17.936Z,6.10
2023-01-04T10:51:18.086Z,4.40
2023-01-04T10:52:18.255Z,4.10
2023-01-04T10:53:18.435Z,4.70
2023-01-04T10:54:18.608Z,5.40
2023-01-04T10:55:18.780Z,4.70
2023-01-04T10:56:25.566Z,5.20
2023-01-04T10:57:20.134Z,3.50
2023-01-04T10:58:19.340Z,3.50
2023-01-04T10:59:19.503Z,5.50
2023-01-04T11:00:19.673Z,3.50
2023-01-04T11:01:19.997Z,4.20
2023-01-04T11:02:20.090Z,6.90
2023-01-04T11:03:20.308Z,4.60
2023-01-04T11:04:20.335Z,5.60
2023-01-04T11:05:20.484Z,4.80
2023-01-04T11:06:20.652Z,5.30
2023-01-04T11:07:20.817Z,4.40
2023-01-04T11:08:21.000Z,4.40
2023-01-04T11:09:25.072Z,3.40
2023-01-04T11:10:21.349Z,4.40
2023-01-04T11:11:21.505Z,6.10
2023-01-04T11:12:21.672Z,5.00
2023-01-04T11:13:21.839Z,5.80
2023-01-04T11:14:22.052Z,4.60
2023-01-04T11:15:22.253Z,3.90
2023-01-04T11:16:22.460Z,3.80
2023-01-04T11:17:22.559Z,3.50
2023-01-04T11:18:22.722Z,4.60
2023-01-04T11:19:22.907Z,7.00
2023-01-04T11:20:26.898Z,8.40
2023-01-04T11:21:23.243Z,8.60
2023-01-04T11:22:23.446Z,5.50
2023-01-04T11:23:23.608Z,6.30
2023-01-04T11:24:32.158Z,4.40
2023-01-04T11:25:35.154Z,6.90
2023-01-04T11:26:25.118Z,4.80
2023-01-04T11:27:27.010Z,4.30
2023-01-04T11:28:24.503Z,7.60
2023-01-04T11:29:24.627Z,4.70
2023-01-04T11:30:24.829Z,5.60
2023-01-04T11:31:25.041Z,5.20
2023-01-04T11:32:25.144Z,3.20
2023-01-04T11:33:25.327Z,5.60
2023-01-04T11:34:25.497Z,5.00
2023-01-04T11:35:25.665Z,5.20
2023-01-04T11:36:25.857Z,4.10
2023-01-04T11:37:26.038Z,5.00
2023-01-04T11:38:26.194Z,4.80
2023-01-04T11:39:26.384Z,6.40
2023-01-04T11:40:26.512Z,4.00
2023-01-04T11:41:26.683Z,3.90
2023-01-04T11:42:26.830Z,3.60
2023-01-04T11:43:27.007Z,5.20
2023-01-04T11:44:27.233Z,4.50
2023-01-04T11:45:27.408Z,4.40
2023-01-04T11:46:27.566Z,4.80
2023-01-04T11:47:29.819Z,5.10
2023-01-04T11:48:28.864Z,3.70
2023-01-04T11:49:28.017Z,3.70
2023-01-04T11:50:28.195Z,4.80
2023-01-04T11:51:28.388Z,4.20
2023-01-04T11:52:28.523Z,4.00
2023-01-04T11:53:28.694Z,4.80
2023-01-04T11:54:28.917Z,5.20
2023-01-04T11:55:29.084Z,6.50
2023-01-04T11:56:29.235Z,5.20
2023-01-04T11:57:29.398Z,6.10
2023-01-04T11:58:29.563Z,6.70
2023-01-04T11:59:29.733Z,5.40
2023-01-04T12:00:29.907Z,6.20
2023-01-04T12:01:30.133Z,5.10
2023-01-04T12:03:31.421Z,5.50
2023-01-04T12:04:35.705Z,4.90
2023-01-04T12:05:31.774Z,7.70
2023-01-04T12:06:30.956Z,6.20
2023-01-04T12:07:31.116Z,5.70
2023-01-04T12:08:31.297Z,6.80
2023-01-04T12:09:31.492Z,5.10
2023-01-04T12:10:31.638Z,5.70
2023-01-04T12:11:31.790Z,4.30
2023-01-04T12:12:31.959Z,5.90
2023-01-04T12:13:32.130Z,4.40
2023-01-04T12:14:32.326Z,6.10
2023-01-04T12:15:32.473Z,3.40
2023-01-04T12:16:32.651Z,4.20
2023-01-04T12:17:35.661Z,5.10
2023-01-04T12:18:33.988Z,4.70
2023-01-04T12:19:33.215Z,4.20
2023-01-04T12:20:33.350Z,4.40
2023-01-04T12:21:33.495Z,6.10
2023-01-04T12:22:33.663Z,3.90
2023-01-04T12:23:33.849Z,4.30
2023-01-04T12:24:34.085Z,5.10
2023-01-04T12:25:34.194Z,6.50
2023-01-04T12:26:34.383Z,3.90
2023-01-04T12:27:34.573Z,3.10
2023-01-04T12:28:34.721Z,3.80
2023-01-04T12:29:34.880Z,2.90
2023-01-04T12:30:35.048Z,3.50
2023-01-04T12:31:35.265Z,3.60
2023-01-04T12:32:35.413Z,4.10
2023-01-04T12:33:35.599Z,4.50
2023-01-04T12:34:35.758Z,3.50
2023-01-04T12:35:35.938Z,4.60
2023-01-04T12:36:36.082Z,3.90
2023-01-04T12:37:36.214Z,3.70
2023-01-04T12:38:36.443Z,4.90
2023-01-04T12:39:36.594Z,3.80
2023-01-04T12:40:36.815Z,4.60
2023-01-04T12:41:36.962Z,4.40
2023-01-04T12:42:37.117Z,3.50
2023-01-04T12:43:41.625Z,2.90
2023-01-04T12:44:38.519Z,2.80
2023-01-04T12:45:37.674Z,4.40
2023-01-04T12:46:37.873Z,4.00
2023-01-04T12:47:37.938Z,5.20
2023-01-04T12:48:38.127Z,3.70
2023-01-04T12:49:38.275Z,4.00
2023-01-04T12:50:43.012Z,3.90
2023-01-04T12:51:52.001Z,5.20
2023-01-04T12:53:01.955Z,4.40
2023-01-04T12:53:39.993Z,3.10
2023-01-04T12:54:39.161Z,4.50
2023-01-04T12:55:42.232Z,4.90
2023-01-04T12:56:39.526Z,4.30
2023-01-04T12:57:39.719Z,5.00
2023-01-04T12:59:41.121Z,5.70
2023-01-04T13:00:40.241Z,4.80
2023-01-04T13:01:40.457Z,5.20
2023-01-04T13:02:40.669Z,5.40
2023-01-04T13:03:40.823Z,5.50
2023-01-04T13:04:41.003Z,4.20
2023-01-04T13:05:57.806Z,4.20
2023-01-04T13:06:42.274Z,4.40
2023-01-04T13:07:41.444Z,6.50
2023-01-04T13:08:41.623Z,4.40
2023-01-04T13:09:46.445Z,5.40
2023-01-04T13:10:43.009Z,5.60
2023-01-04T13:11:42.184Z,4.50
2023-01-04T13:12:42.363Z,4.80
2023-01-04T13:13:42.515Z,4.30
2023-01-04T13:14:42.678Z,4.30
2023-01-04T13:15:42.871Z,3.80
2023-01-04T13:16:43.063Z,4.50
2023-01-04T13:17:43.222Z,4.50
2023-01-04T13:18:43.395Z,4.60
2023-01-04T13:19:43.572Z,4.30
2023-01-04T13:20:43.743Z,3.80
2023-01-04T13:21:43.902Z,5.00
2023-01-04T13:22:44.054Z,4.50
2023-01-04T13:23:44.267Z,3.80
2023-01-04T13:24:44.428Z,4.20
2023-01-04T13:25:44.629Z,3.70